sensor_id;sensor_type;location;lat;lon;timestamp;temperature;humidity
32139;DHT22;18644;48.700;9.210;2023-11-18T00:00:46;8.70;69.30
32139;DHT22;18644;48.700;9.210;2023-11-18T00:03:13;8.60;69.30
32139;DHT22;18644;48.700;9.210;2023-11-18T00:05:40;8.60;69.50
32139;DHT22;18644;48.700;9.210;2023-11-18T00:08:09;8.70;69.60
32139;DHT22;18644;48.700;9.210;2023-11-18T00:10:35;8.70;69.70
32139;DHT22;18644;48.700;9.210;2023-11-18T00:13:02;8.70;69.70
32139;DHT22;18644;48.700;9.210;2023-11-18T00:15:29;8.70;69.70
32139;DHT22;18644;48.700;9.210;2023-11-18T00:17:56;8.70;69.80
32139;DHT22;18644;48.700;9.210;2023-11-18T00:20:23;8.70;69.80
32139;DHT22;18644;48.700;9.210;2023-11-18T00:22:50;8.70;69.90
32139;DHT22;18644;48.700;9.210;2023-11-18T00:25:19;8.70;70.70
32139;DHT22;18644;48.700;9.210;2023-11-18T00:27:46;8.70;70.00
32139;DHT22;18644;48.700;9.210;2023-11-18T00:30:14;8.70;70.00
32139;DHT22;18644;48.700;9.210;2023-11-18T00:32:41;8.70;69.90
32139;DHT22;18644;48.700;9.210;2023-11-18T00:35:09;8.80;70.00
32139;DHT22;18644;48.700;9.210;2023-11-18T00:37:36;8.80;69.90
32139;DHT22;18644;48.700;9.210;2023-11-18T00:40:04;8.80;70.60
32139;DHT22;18644;48.700;9.210;2023-11-18T00:42:34;8.80;69.90
32139;DHT22;18644;48.700;9.210;2023-11-18T00:45:01;8.80;69.90
32139;DHT22;18644;48.700;9.210;2023-11-18T00:47:29;8.80;69.90
32139;DHT22;18644;48.700;9.210;2023-11-18T00:49:56;8.80;69.80
32139;DHT22;18644;48.700;9.210;2023-11-18T00:52:27;8.80;69.70
32139;DHT22;18644;48.700;9.210;2023-11-18T00:54:54;8.80;69.60
32139;DHT22;18644;48.700;9.210;2023-11-18T00:57:21;8.80;69.60
32139;DHT22;18644;48.700;9.210;2023-11-18T00:59:49;8.80;69.70
32139;DHT22;18644;48.700;9.210;2023-11-18T01:02:16;8.80;69.60
32139;DHT22;18644;48.700;9.210;2023-11-18T01:04:43;8.90;69.70
32139;DHT22;18644;48.700;9.210;2023-11-18T01:07:11;8.80;69.70
32139;DHT22;18644;48.700;9.210;2023-11-18T01:09:38;8.80;69.70
32139;DHT22;18644;48.700;9.210;2023-11-18T01:12:06;8.80;69.70
32139;DHT22;18644;48.700;9.210;2023-11-18T01:14:35;8.80;69.70
32139;DHT22;18644;48.700;9.210;2023-11-18T01:17:05;8.90;69.70
32139;DHT22;18644;48.700;9.210;2023-11-18T01:19:32;8.90;69.70
32139;DHT22;18644;48.700;9.210;2023-11-18T01:22:00;8.80;69.60
32139;DHT22;18644;48.700;9.210;2023-11-18T01:24:30;8.80;69.60
32139;DHT22;18644;48.700;9.210;2023-11-18T01:26:57;8.90;69.60
32139;DHT22;18644;48.700;9.210;2023-11-18T01:29:24;8.80;69.50
32139;DHT22;18644;48.700;9.210;2023-11-18T01:31:51;8.80;69.40
32139;DHT22;18644;48.700;9.210;2023-11-18T01:34:22;8.90;69.60
32139;DHT22;18644;48.700;9.210;2023-11-18T01:36:49;8.80;69.40
32139;DHT22;18644;48.700;9.210;2023-11-18T01:39:16;8.80;69.40
32139;DHT22;18644;48.700;9.210;2023-11-18T01:41:44;8.80;69.40
32139;DHT22;18644;48.700;9.210;2023-11-18T01:44:11;8.90;69.50
32139;DHT22;18644;48.700;9.210;2023-11-18T01:46:40;8.80;69.40
32139;DHT22;18644;48.700;9.210;2023-11-18T01:49:10;8.80;69.50
32139;DHT22;18644;48.700;9.210;2023-11-18T01:51:41;8.80;69.50
32139;DHT22;18644;48.700;9.210;2023-11-18T01:54:09;8.80;69.60
32139;DHT22;18644;48.700;9.210;2023-11-18T01:56:40;8.80;69.60
32139;DHT22;18644;48.700;9.210;2023-11-18T01:59:09;8.90;69.70
32139;DHT22;18644;48.700;9.210;2023-11-18T02:01:44;8.80;69.70
32139;DHT22;18644;48.700;9.210;2023-11-18T02:04:13;8.90;69.70
32139;DHT22;18644;48.700;9.210;2023-11-18T02:06:42;8.90;69.70
32139;DHT22;18644;48.700;9.210;2023-11-18T02:09:10;8.90;69.80
32139;DHT22;18644;48.700;9.210;2023-11-18T02:11:41;8.90;69.70
32139;DHT22;18644;48.700;9.210;2023-11-18T02:14:13;8.90;69.70
32139;DHT22;18644;48.700;9.210;2023-11-18T02:16:43;8.90;69.70
32139;DHT22;18644;48.700;9.210;2023-11-18T02:19:19;8.90;69.70
32139;DHT22;18644;48.700;9.210;2023-11-18T02:21:49;8.90;69.70
32139;DHT22;18644;48.700;9.210;2023-11-18T02:24:27;8.90;69.70
32139;DHT22;18644;48.700;9.210;2023-11-18T02:26:58;8.90;69.60
32139;DHT22;18644;48.700;9.210;2023-11-18T02:29:28;8.90;69.60
32139;DHT22;18644;48.700;9.210;2023-11-18T02:32:05;8.90;69.50
32139;DHT22;18644;48.700;9.210;2023-11-18T02:34:40;8.90;69.50
32139;DHT22;18644;48.700;9.210;2023-11-18T02:37:13;8.90;69.50
32139;DHT22;18644;48.700;9.210;2023-11-18T02:39:43;8.90;69.50
32139;DHT22;18644;48.700;9.210;2023-11-18T02:42:16;8.90;69.60
32139;DHT22;18644;48.700;9.210;2023-11-18T02:44:43;8.90;69.60
32139;DHT22;18644;48.700;9.210;2023-11-18T02:47:11;8.90;69.60
32139;DHT22;18644;48.700;9.210;2023-11-18T02:49:38;8.90;69.60
32139;DHT22;18644;48.700;9.210;2023-11-18T02:52:05;8.90;69.60
32139;DHT22;18644;48.700;9.210;2023-11-18T02:54:35;8.90;69.50
32139;DHT22;18644;48.700;9.210;2023-11-18T02:57:03;8.90;69.50
32139;DHT22;18644;48.700;9.210;2023-11-18T02:59:31;8.90;69.40
32139;DHT22;18644;48.700;9.210;2023-11-18T03:01:58;8.90;69.40
32139;DHT22;18644;48.700;9.210;2023-11-18T03:04:27;8.90;69.30
32139;DHT22;18644;48.700;9.210;2023-11-18T03:06:54;8.90;69.20
32139;DHT22;18644;48.700;9.210;2023-11-18T03:09:21;8.90;69.10
32139;DHT22;18644;48.700;9.210;2023-11-18T03:11:52;8.90;68.90
32139;DHT22;18644;48.700;9.210;2023-11-18T03:14:20;8.80;68.70
32139;DHT22;18644;48.700;9.210;2023-11-18T03:16:48;8.80;68.50
32139;DHT22;18644;48.700;9.210;2023-11-18T03:19:15;8.80;68.10
32139;DHT22;18644;48.700;9.210;2023-11-18T03:21:42;8.70;67.90
32139;DHT22;18644;48.700;9.210;2023-11-18T03:24:09;8.60;67.80
32139;DHT22;18644;48.700;9.210;2023-11-18T03:26:36;8.60;67.70
32139;DHT22;18644;48.700;9.210;2023-11-18T03:29:03;8.50;67.40
32139;DHT22;18644;48.700;9.210;2023-11-18T03:31:30;8.40;67.40
32139;DHT22;18644;48.700;9.210;2023-11-18T03:33:59;8.40;67.40
32139;DHT22;18644;48.700;9.210;2023-11-18T03:36:25;8.30;67.30
32139;DHT22;18644;48.700;9.210;2023-11-18T03:38:53;8.30;67.30
32139;DHT22;18644;48.700;9.210;2023-11-18T03:41:20;8.10;67.20
32139;DHT22;18644;48.700;9.210;2023-11-18T03:43:49;8.10;67.20
32139;DHT22;18644;48.700;9.210;2023-11-18T03:46:16;8.00;67.30
32139;DHT22;18644;48.700;9.210;2023-11-18T03:48:44;8.00;67.30
32139;DHT22;18644;48.700;9.210;2023-11-18T03:51:12;7.90;67.30
32139;DHT22;18644;48.700;9.210;2023-11-18T03:53:42;7.90;67.40
32139;DHT22;18644;48.700;9.210;2023-11-18T03:56:09;7.80;67.40
32139;DHT22;18644;48.700;9.210;2023-11-18T03:58:36;7.80;67.70
32139;DHT22;18644;48.700;9.210;2023-11-18T04:01:03;7.70;67.90
32139;DHT22;18644;48.700;9.210;2023-11-18T04:03:31;7.70;68.10
32139;DHT22;18644;48.700;9.210;2023-11-18T04:05:58;7.70;68.20
32139;DHT22;18644;48.700;9.210;2023-11-18T04:08:26;7.70;68.40
32139;DHT22;18644;48.700;9.210;2023-11-18T04:10:53;7.70;68.60
32139;DHT22;18644;48.700;9.210;2023-11-18T04:13:20;7.60;68.70
32139;DHT22;18644;48.700;9.210;2023-11-18T04:15:47;7.60;68.80
32139;DHT22;18644;48.700;9.210;2023-11-18T04:18:14;7.60;68.90
32139;DHT22;18644;48.700;9.210;2023-11-18T04:20:41;7.60;69.00
32139;DHT22;18644;48.700;9.210;2023-11-18T04:23:08;7.60;69.00
32139;DHT22;18644;48.700;9.210;2023-11-18T04:25:38;7.60;69.00
32139;DHT22;18644;48.700;9.210;2023-11-18T04:28:05;7.60;69.00
32139;DHT22;18644;48.700;9.210;2023-11-18T04:30:32;7.60;69.10
32139;DHT22;18644;48.700;9.210;2023-11-18T04:32:59;7.60;69.20
32139;DHT22;18644;48.700;9.210;2023-11-18T04:35:26;7.60;69.20
32139;DHT22;18644;48.700;9.210;2023-11-18T04:37:53;7.60;69.20
32139;DHT22;18644;48.700;9.210;2023-11-18T04:40:22;7.60;69.30
32139;DHT22;18644;48.700;9.210;2023-11-18T04:42:50;7.60;69.30
32139;DHT22;18644;48.700;9.210;2023-11-18T04:45:17;7.60;69.40
32139;DHT22;18644;48.700;9.210;2023-11-18T04:47:44;7.60;69.30
32139;DHT22;18644;48.700;9.210;2023-11-18T04:50:12;7.60;69.20
32139;DHT22;18644;48.700;9.210;2023-11-18T04:52:38;7.60;69.20
32139;DHT22;18644;48.700;9.210;2023-11-18T04:55:06;7.60;69.20
32139;DHT22;18644;48.700;9.210;2023-11-18T04:57:35;7.50;69.20
32139;DHT22;18644;48.700;9.210;2023-11-18T05:00:07;7.60;69.20
32139;DHT22;18644;48.700;9.210;2023-11-18T05:02:37;7.50;69.30
32139;DHT22;18644;48.700;9.210;2023-11-18T05:05:04;7.50;69.30
32139;DHT22;18644;48.700;9.210;2023-11-18T05:07:32;7.50;69.40
32139;DHT22;18644;48.700;9.210;2023-11-18T05:10:00;7.50;69.60
32139;DHT22;18644;48.700;9.210;2023-11-18T05:12:28;7.60;69.70
32139;DHT22;18644;48.700;9.210;2023-11-18T05:14:55;7.60;69.80
32139;DHT22;18644;48.700;9.210;2023-11-18T05:17:24;7.60;69.90
32139;DHT22;18644;48.700;9.210;2023-11-18T05:19:51;7.60;70.00
32139;DHT22;18644;48.700;9.210;2023-11-18T05:22:19;7.60;70.10
32139;DHT22;18644;48.700;9.210;2023-11-18T05:24:46;7.60;70.20
32139;DHT22;18644;48.700;9.210;2023-11-18T05:27:14;7.60;70.30
32139;DHT22;18644;48.700;9.210;2023-11-18T05:29:43;7.70;71.20
32139;DHT22;18644;48.700;9.210;2023-11-18T05:32:10;7.70;70.40
32139;DHT22;18644;48.700;9.210;2023-11-18T05:34:39;7.70;70.40
32139;DHT22;18644;48.700;9.210;2023-11-18T05:37:06;7.70;70.40
32139;DHT22;18644;48.700;9.210;2023-11-18T05:39:33;7.80;70.50
32139;DHT22;18644;48.700;9.210;2023-11-18T05:42:08;7.80;70.40
32139;DHT22;18644;48.700;9.210;2023-11-18T05:44:36;7.80;70.30
32139;DHT22;18644;48.700;9.210;2023-11-18T05:47:05;7.80;70.20
32139;DHT22;18644;48.700;9.210;2023-11-18T05:49:32;7.80;70.00
32139;DHT22;18644;48.700;9.210;2023-11-18T05:52:00;7.80;69.80
32139;DHT22;18644;48.700;9.210;2023-11-18T05:54:27;7.80;69.70
32139;DHT22;18644;48.700;9.210;2023-11-18T05:56:54;7.80;69.60
32139;DHT22;18644;48.700;9.210;2023-11-18T05:59:21;7.80;69.50
32139;DHT22;18644;48.700;9.210;2023-11-18T06:01:49;7.80;69.50
32139;DHT22;18644;48.700;9.210;2023-11-18T06:04:16;7.80;69.50
32139;DHT22;18644;48.700;9.210;2023-11-18T06:06:43;7.70;69.50
32139;DHT22;18644;48.700;9.210;2023-11-18T06:09:11;7.80;69.50
32139;DHT22;18644;48.700;9.210;2023-11-18T06:11:46;7.70;69.40
32139;DHT22;18644;48.700;9.210;2023-11-18T06:14:15;7.70;69.30
32139;DHT22;18644;48.700;9.210;2023-11-18T06:16:42;7.70;69.80
32139;DHT22;18644;48.700;9.210;2023-11-18T06:19:09;7.60;68.90
32139;DHT22;18644;48.700;9.210;2023-11-18T06:21:36;7.60;68.80
32139;DHT22;18644;48.700;9.210;2023-11-18T06:24:04;7.60;68.80
32139;DHT22;18644;48.700;9.210;2023-11-18T06:26:33;7.50;68.80
32139;DHT22;18644;48.700;9.210;2023-11-18T06:29:02;7.50;68.80
32139;DHT22;18644;48.700;9.210;2023-11-18T06:31:29;7.50;68.90
32139;DHT22;18644;48.700;9.210;2023-11-18T06:33:56;7.40;68.90
32139;DHT22;18644;48.700;9.210;2023-11-18T06:36:23;7.40;69.00
32139;DHT22;18644;48.700;9.210;2023-11-18T06:38:52;7.40;69.20
32139;DHT22;18644;48.700;9.210;2023-11-18T06:41:21;7.40;69.40
32139;DHT22;18644;48.700;9.210;2023-11-18T06:43:52;7.50;69.60
32139;DHT22;18644;48.700;9.210;2023-11-18T06:46:27;7.40;69.60
32139;DHT22;18644;48.700;9.210;2023-11-18T06:48:57;7.40;69.60
32139;DHT22;18644;48.700;9.210;2023-11-18T06:51:26;7.40;69.50
32139;DHT22;18644;48.700;9.210;2023-11-18T06:53:54;7.40;69.60
32139;DHT22;18644;48.700;9.210;2023-11-18T06:56:21;7.40;69.70
32139;DHT22;18644;48.700;9.210;2023-11-18T06:58:49;7.40;69.80
32139;DHT22;18644;48.700;9.210;2023-11-18T07:01:17;7.40;69.90
32139;DHT22;18644;48.700;9.210;2023-11-18T07:03:45;7.40;70.00
32139;DHT22;18644;48.700;9.210;2023-11-18T07:06:16;7.50;70.00
32139;DHT22;18644;48.700;9.210;2023-11-18T07:08:47;7.50;70.10
32139;DHT22;18644;48.700;9.210;2023-11-18T07:11:15;7.50;70.10
32139;DHT22;18644;48.700;9.210;2023-11-18T07:13:42;7.50;70.20
32139;DHT22;18644;48.700;9.210;2023-11-18T07:16:09;7.50;70.20
32139;DHT22;18644;48.700;9.210;2023-11-18T07:18:38;7.60;70.40
32139;DHT22;18644;48.700;9.210;2023-11-18T07:21:05;7.60;70.60
32139;DHT22;18644;48.700;9.210;2023-11-18T07:23:33;7.60;70.60
32139;DHT22;18644;48.700;9.210;2023-11-18T07:26:00;7.70;70.80
32139;DHT22;18644;48.700;9.210;2023-11-18T07:28:29;7.70;70.90
32139;DHT22;18644;48.700;9.210;2023-11-18T07:30:56;7.80;70.90
32139;DHT22;18644;48.700;9.210;2023-11-18T07:33:25;7.90;70.90
32139;DHT22;18644;48.700;9.210;2023-11-18T07:35:53;7.90;70.90
32139;DHT22;18644;48.700;9.210;2023-11-18T07:38:20;7.90;70.80
32139;DHT22;18644;48.700;9.210;2023-11-18T07:40:47;8.00;70.90
32139;DHT22;18644;48.700;9.210;2023-11-18T07:43:14;8.10;70.90
32139;DHT22;18644;48.700;9.210;2023-11-18T07:45:42;8.10;70.90
32139;DHT22;18644;48.700;9.210;2023-11-18T07:48:10;8.20;71.00
32139;DHT22;18644;48.700;9.210;2023-11-18T07:50:38;8.30;71.00
32139;DHT22;18644;48.700;9.210;2023-11-18T07:53:07;8.30;71.10
32139;DHT22;18644;48.700;9.210;2023-11-18T07:55:35;8.40;71.30
32139;DHT22;18644;48.700;9.210;2023-11-18T07:58:04;8.50;71.50
32139;DHT22;18644;48.700;9.210;2023-11-18T08:00:36;8.60;71.60
32139;DHT22;18644;48.700;9.210;2023-11-18T08:03:04;8.70;71.50
32139;DHT22;18644;48.700;9.210;2023-11-18T08:05:34;8.70;71.30
32139;DHT22;18644;48.700;9.210;2023-11-18T08:08:01;8.80;71.20
32139;DHT22;18644;48.700;9.210;2023-11-18T08:10:30;8.90;71.00
32139;DHT22;18644;48.700;9.210;2023-11-18T08:12:58;9.00;71.60
32139;DHT22;18644;48.700;9.210;2023-11-18T08:15:25;9.00;70.60
32139;DHT22;18644;48.700;9.210;2023-11-18T08:17:55;9.10;70.50
32139;DHT22;18644;48.700;9.210;2023-11-18T08:20:21;9.10;70.50
32139;DHT22;18644;48.700;9.210;2023-11-18T08:22:51;9.20;70.50
32139;DHT22;18644;48.700;9.210;2023-11-18T08:25:18;9.20;70.60
32139;DHT22;18644;48.700;9.210;2023-11-18T08:27:48;9.20;70.60
32139;DHT22;18644;48.700;9.210;2023-11-18T08:30:15;9.30;70.70
32139;DHT22;18644;48.700;9.210;2023-11-18T08:32:44;9.40;70.60
32139;DHT22;18644;48.700;9.210;2023-11-18T08:35:12;9.40;70.50
32139;DHT22;18644;48.700;9.210;2023-11-18T08:37:40;9.50;70.50
32139;DHT22;18644;48.700;9.210;2023-11-18T08:40:08;9.50;70.50
32139;DHT22;18644;48.700;9.210;2023-11-18T08:42:41;9.60;70.50
32139;DHT22;18644;48.700;9.210;2023-11-18T08:45:15;9.60;70.40
32139;DHT22;18644;48.700;9.210;2023-11-18T08:47:44;9.60;70.30
32139;DHT22;18644;48.700;9.210;2023-11-18T08:50:12;9.70;70.30
32139;DHT22;18644;48.700;9.210;2023-11-18T08:52:40;9.70;70.20
32139;DHT22;18644;48.700;9.210;2023-11-18T08:55:10;9.80;70.30
32139;DHT22;18644;48.700;9.210;2023-11-18T08:57:44;9.80;70.40
32139;DHT22;18644;48.700;9.210;2023-11-18T09:00:26;9.90;70.40
32139;DHT22;18644;48.700;9.210;2023-11-18T09:03:12;10.00;70.30
32139;DHT22;18644;48.700;9.210;2023-11-18T09:05:44;10.00;70.10
32139;DHT22;18644;48.700;9.210;2023-11-18T09:08:26;10.00;69.90
32139;DHT22;18644;48.700;9.210;2023-11-18T09:10:55;10.10;69.80
32139;DHT22;18644;48.700;9.210;2023-11-18T09:13:23;10.10;69.80
32139;DHT22;18644;48.700;9.210;2023-11-18T09:15:56;10.20;70.00
32139;DHT22;18644;48.700;9.210;2023-11-18T09:18:23;10.30;70.00
32139;DHT22;18644;48.700;9.210;2023-11-18T09:20:51;10.30;70.00
32139;DHT22;18644;48.700;9.210;2023-11-18T09:23:20;10.40;69.90
32139;DHT22;18644;48.700;9.210;2023-11-18T09:25:49;10.50;69.90
32139;DHT22;18644;48.700;9.210;2023-11-18T09:28:16;10.50;69.60
32139;DHT22;18644;48.700;9.210;2023-11-18T09:30:45;10.60;69.30
32139;DHT22;18644;48.700;9.210;2023-11-18T09:33:21;10.60;69.10
32139;DHT22;18644;48.700;9.210;2023-11-18T09:35:58;10.70;69.20
32139;DHT22;18644;48.700;9.210;2023-11-18T09:38:26;10.70;69.10
32139;DHT22;18644;48.700;9.210;2023-11-18T09:40:57;10.80;69.20
32139;DHT22;18644;48.700;9.210;2023-11-18T09:43:28;10.90;69.20
32139;DHT22;18644;48.700;9.210;2023-11-18T09:46:03;10.90;69.10
32139;DHT22;18644;48.700;9.210;2023-11-18T09:48:44;11.00;69.50
32139;DHT22;18644;48.700;9.210;2023-11-18T09:51:20;11.10;68.60
32139;DHT22;18644;48.700;9.210;2023-11-18T09:53:50;11.10;68.40
32139;DHT22;18644;48.700;9.210;2023-11-18T09:56:23;11.10;68.20
32139;DHT22;18644;48.700;9.210;2023-11-18T09:59:07;11.20;68.00
32139;DHT22;18644;48.700;9.210;2023-11-18T10:01:42;11.30;68.00
32139;DHT22;18644;48.700;9.210;2023-11-18T10:04:12;11.30;68.70
32139;DHT22;18644;48.700;9.210;2023-11-18T10:06:44;11.30;67.80
32139;DHT22;18644;48.700;9.210;2023-11-18T10:09:14;11.40;67.70
32139;DHT22;18644;48.700;9.210;2023-11-18T10:11:43;11.40;67.50
32139;DHT22;18644;48.700;9.210;2023-11-18T10:14:13;11.50;67.50
32139;DHT22;18644;48.700;9.210;2023-11-18T10:16:42;11.50;67.40
32139;DHT22;18644;48.700;9.210;2023-11-18T10:19:14;11.60;67.60
32139;DHT22;18644;48.700;9.210;2023-11-18T10:21:43;11.60;67.60
32139;DHT22;18644;48.700;9.210;2023-11-18T10:24:14;11.70;67.70
32139;DHT22;18644;48.700;9.210;2023-11-18T10:26:45;11.80;67.50
32139;DHT22;18644;48.700;9.210;2023-11-18T10:29:14;11.80;67.50
32139;DHT22;18644;48.700;9.210;2023-11-18T10:31:44;11.90;67.50
32139;DHT22;18644;48.700;9.210;2023-11-18T10:34:13;12.00;67.40
32139;DHT22;18644;48.700;9.210;2023-11-18T10:36:42;12.00;67.30
32139;DHT22;18644;48.700;9.210;2023-11-18T10:39:28;12.10;67.50
32139;DHT22;18644;48.700;9.210;2023-11-18T10:41:59;12.20;67.40
32139;DHT22;18644;48.700;9.210;2023-11-18T10:44:27;12.30;67.30
32139;DHT22;18644;48.700;9.210;2023-11-18T10:46:55;12.30;67.40
32139;DHT22;18644;48.700;9.210;2023-11-18T10:49:26;12.40;67.00
32139;DHT22;18644;48.700;9.210;2023-11-18T10:51:55;12.50;66.60
32139;DHT22;18644;48.700;9.210;2023-11-18T10:54:23;12.50;66.40
32139;DHT22;18644;48.700;9.210;2023-11-18T10:56:52;12.50;66.50
32139;DHT22;18644;48.700;9.210;2023-11-18T10:59:22;12.60;66.60
32139;DHT22;18644;48.700;9.210;2023-11-18T11:01:49;12.70;66.50
32139;DHT22;18644;48.700;9.210;2023-11-18T11:04:16;12.70;66.20
32139;DHT22;18644;48.700;9.210;2023-11-18T11:06:48;12.80;66.00
32139;DHT22;18644;48.700;9.210;2023-11-18T11:09:19;12.80;65.80
32139;DHT22;18644;48.700;9.210;2023-11-18T11:11:54;12.90;65.80
32139;DHT22;18644;48.700;9.210;2023-11-18T11:14:26;12.90;65.60
32139;DHT22;18644;48.700;9.210;2023-11-18T11:17:05;12.90;65.50
32139;DHT22;18644;48.700;9.210;2023-11-18T11:19:41;13.00;65.40
32139;DHT22;18644;48.700;9.210;2023-11-18T11:22:18;13.00;65.30
32139;DHT22;18644;48.700;9.210;2023-11-18T11:24:57;13.00;65.20
32139;DHT22;18644;48.700;9.210;2023-11-18T11:27:32;13.10;65.30
32139;DHT22;18644;48.700;9.210;2023-11-18T11:30:10;13.10;65.20
32139;DHT22;18644;48.700;9.210;2023-11-18T11:32:47;13.20;64.60
32139;DHT22;18644;48.700;9.210;2023-11-18T11:35:22;13.20;63.90
32139;DHT22;18644;48.700;9.210;2023-11-18T11:37:52;13.20;63.50
32139;DHT22;18644;48.700;9.210;2023-11-18T11:40:28;13.10;63.10
32139;DHT22;18644;48.700;9.210;2023-11-18T11:42:56;13.10;63.20
32139;DHT22;18644;48.700;9.210;2023-11-18T11:45:27;13.20;63.60
32139;DHT22;18644;48.700;9.210;2023-11-18T11:47:55;13.20;63.70
32139;DHT22;18644;48.700;9.210;2023-11-18T11:51:00;13.10;63.60
32139;DHT22;18644;48.700;9.210;2023-11-18T11:53:35;13.20;63.20
32139;DHT22;18644;48.700;9.210;2023-11-18T11:56:05;13.10;63.20
32139;DHT22;18644;48.700;9.210;2023-11-18T11:58:35;13.20;63.10
32139;DHT22;18644;48.700;9.210;2023-11-18T12:01:16;13.10;62.90
32139;DHT22;18644;48.700;9.210;2023-11-18T12:03:50;13.10;62.40
32139;DHT22;18644;48.700;9.210;2023-11-18T12:06:23;13.10;62.70
32139;DHT22;18644;48.700;9.210;2023-11-18T12:08:53;13.10;62.80
32139;DHT22;18644;48.700;9.210;2023-11-18T12:11:21;13.10;62.50
32139;DHT22;18644;48.700;9.210;2023-11-18T12:14:05;13.10;62.60
32139;DHT22;18644;48.700;9.210;2023-11-18T12:17:01;13.00;62.00
32139;DHT22;18644;48.700;9.210;2023-11-18T12:19:36;13.00;62.30
32139;DHT22;18644;48.700;9.210;2023-11-18T12:22:12;13.00;62.20
32139;DHT22;18644;48.700;9.210;2023-11-18T12:24:45;12.90;62.20
32139;DHT22;18644;48.700;9.210;2023-11-18T12:27:42;12.90;62.20
32139;DHT22;18644;48.700;9.210;2023-11-18T12:30:37;12.90;62.00
32139;DHT22;18644;48.700;9.210;2023-11-18T12:33:07;12.90;62.00
32139;DHT22;18644;48.700;9.210;2023-11-18T12:35:41;12.90;62.30
32139;DHT22;18644;48.700;9.210;2023-11-18T12:38:44;12.90;62.40
32139;DHT22;18644;48.700;9.210;2023-11-18T12:41:34;12.80;62.00
32139;DHT22;18644;48.700;9.210;2023-11-18T12:44:15;12.80;62.90
32139;DHT22;18644;48.700;9.210;2023-11-18T12:46:53;12.80;62.10
32139;DHT22;18644;48.700;9.210;2023-11-18T12:49:21;12.80;62.50
32139;DHT22;18644;48.700;9.210;2023-11-18T12:51:50;12.80;62.70
32139;DHT22;18644;48.700;9.210;2023-11-18T12:54:19;12.80;62.80
32139;DHT22;18644;48.700;9.210;2023-11-18T12:56:48;12.80;62.80
32139;DHT22;18644;48.700;9.210;2023-11-18T12:59:16;12.80;62.70
32139;DHT22;18644;48.700;9.210;2023-11-18T13:01:44;12.80;62.80
32139;DHT22;18644;48.700;9.210;2023-11-18T13:04:17;12.80;62.70
32139;DHT22;18644;48.700;9.210;2023-11-18T13:06:46;12.80;62.50
32139;DHT22;18644;48.700;9.210;2023-11-18T13:09:14;12.80;62.60
32139;DHT22;18644;48.700;9.210;2023-11-18T13:11:53;12.70;62.40
32139;DHT22;18644;48.700;9.210;2023-11-18T13:14:23;12.70;62.30
32139;DHT22;18644;48.700;9.210;2023-11-18T13:16:52;12.70;62.20
32139;DHT22;18644;48.700;9.210;2023-11-18T13:19:26;12.60;63.00
32139;DHT22;18644;48.700;9.210;2023-11-18T13:21:57;12.60;62.40
32139;DHT22;18644;48.700;9.210;2023-11-18T13:24:25;12.60;62.50
32139;DHT22;18644;48.700;9.210;2023-11-18T13:26:55;12.60;62.60
32139;DHT22;18644;48.700;9.210;2023-11-18T13:29:24;12.50;62.70
32139;DHT22;18644;48.700;9.210;2023-11-18T13:31:51;12.50;62.80
32139;DHT22;18644;48.700;9.210;2023-11-18T13:34:18;12.50;62.60
32139;DHT22;18644;48.700;9.210;2023-11-18T13:36:46;12.50;62.50
32139;DHT22;18644;48.700;9.210;2023-11-18T13:39:17;12.40;62.50
32139;DHT22;18644;48.700;9.210;2023-11-18T13:41:44;12.40;62.40
32139;DHT22;18644;48.700;9.210;2023-11-18T13:44:34;12.40;62.50
32139;DHT22;18644;48.700;9.210;2023-11-18T13:47:01;12.30;62.40
32139;DHT22;18644;48.700;9.210;2023-11-18T13:49:31;12.30;62.60
32139;DHT22;18644;48.700;9.210;2023-11-18T13:51:58;12.30;62.90
32139;DHT22;18644;48.700;9.210;2023-11-18T13:54:27;12.30;62.90
32139;DHT22;18644;48.700;9.210;2023-11-18T13:56:54;12.30;63.00
32139;DHT22;18644;48.700;9.210;2023-11-18T13:59:23;12.30;63.00
32139;DHT22;18644;48.700;9.210;2023-11-18T14:01:54;12.20;63.00
32139;DHT22;18644;48.700;9.210;2023-11-18T14:04:23;12.20;63.10
32139;DHT22;18644;48.700;9.210;2023-11-18T14:06:51;12.20;63.10
32139;DHT22;18644;48.700;9.210;2023-11-18T14:09:19;12.20;63.30
32139;DHT22;18644;48.700;9.210;2023-11-18T14:11:47;12.20;63.30
32139;DHT22;18644;48.700;9.210;2023-11-18T14:14:14;12.20;63.30
32139;DHT22;18644;48.700;9.210;2023-11-18T14:16:43;12.20;63.20
32139;DHT22;18644;48.700;9.210;2023-11-18T14:19:12;12.20;63.20
32139;DHT22;18644;48.700;9.210;2023-11-18T14:21:39;12.10;63.10
32139;DHT22;18644;48.700;9.210;2023-11-18T14:24:07;12.20;63.10
32139;DHT22;18644;48.700;9.210;2023-11-18T14:26:36;12.10;63.10
32139;DHT22;18644;48.700;9.210;2023-11-18T14:29:03;12.10;63.10
32139;DHT22;18644;48.700;9.210;2023-11-18T14:31:30;12.10;63.10
32139;DHT22;18644;48.700;9.210;2023-11-18T14:33:57;12.00;63.10
32139;DHT22;18644;48.700;9.210;2023-11-18T14:36:25;12.00;64.00
32139;DHT22;18644;48.700;9.210;2023-11-18T14:38:52;12.00;63.40
32139;DHT22;18644;48.700;9.210;2023-11-18T14:41:19;12.00;63.50
32139;DHT22;18644;48.700;9.210;2023-11-18T14:43:50;11.90;64.30
32139;DHT22;18644;48.700;9.210;2023-11-18T14:46:17;11.90;63.60
32139;DHT22;18644;48.700;9.210;2023-11-18T14:48:45;11.90;64.50
32139;DHT22;18644;48.700;9.210;2023-11-18T14:51:12;11.90;64.30
32139;DHT22;18644;48.700;9.210;2023-11-18T14:53:40;11.80;63.80
32139;DHT22;18644;48.700;9.210;2023-11-18T14:56:09;11.80;63.90
32139;DHT22;18644;48.700;9.210;2023-11-18T14:58:35;11.80;63.90
32139;DHT22;18644;48.700;9.210;2023-11-18T15:01:03;11.80;64.00
32139;DHT22;18644;48.700;9.210;2023-11-18T15:03:32;11.70;63.90
32139;DHT22;18644;48.700;9.210;2023-11-18T15:06:00;11.80;64.00
32139;DHT22;18644;48.700;9.210;2023-11-18T15:08:27;11.80;64.00
32139;DHT22;18644;48.700;9.210;2023-11-18T15:10:57;11.70;63.90
32139;DHT22;18644;48.700;9.210;2023-11-18T15:13:24;11.70;63.90
32139;DHT22;18644;48.700;9.210;2023-11-18T15:15:51;11.70;63.80
32139;DHT22;18644;48.700;9.210;2023-11-18T15:18:18;11.70;63.70
32139;DHT22;18644;48.700;9.210;2023-11-18T15:20:45;11.70;63.60
32139;DHT22;18644;48.700;9.210;2023-11-18T15:23:14;11.60;63.60
32139;DHT22;18644;48.700;9.210;2023-11-18T15:25:42;11.60;63.70
32139;DHT22;18644;48.700;9.210;2023-11-18T15:28:11;11.60;63.80
32139;DHT22;18644;48.700;9.210;2023-11-18T15:30:40;11.60;63.80
32139;DHT22;18644;48.700;9.210;2023-11-18T15:33:07;11.60;63.80
32139;DHT22;18644;48.700;9.210;2023-11-18T15:35:35;11.50;63.70
32139;DHT22;18644;48.700;9.210;2023-11-18T15:38:03;11.50;63.60
32139;DHT22;18644;48.700;9.210;2023-11-18T15:40:34;11.50;63.50
32139;DHT22;18644;48.700;9.210;2023-11-18T15:43:03;11.50;63.40
32139;DHT22;18644;48.700;9.210;2023-11-18T15:45:33;11.50;63.50
32139;DHT22;18644;48.700;9.210;2023-11-18T15:48:03;11.40;63.40
32139;DHT22;18644;48.700;9.210;2023-11-18T15:50:33;11.40;63.50
32139;DHT22;18644;48.700;9.210;2023-11-18T15:53:03;11.40;63.40
32139;DHT22;18644;48.700;9.210;2023-11-18T15:55:31;11.40;63.40